This is the latest recevied weather packets stored in our database for station/object KO5MO-4. If no packets are shown the sender has not sent any weather packets the latest 10 day(s).
| Time | Temp. | Humidity | Pressure | Rain* | Wind** | Luminosity | Snow |
|---|---|---|---|---|---|---|---|
| 1777245927 | 26.11° C | 24% | 1007 hPa | 0 mm | - | - | - |
| 1777244575 | 25° C | 24% | 1006.8 hPa | 0 mm | - | - | - |
| 1777244275 | 25.56° C | 24% | 1006.9 hPa | 0 mm | - | - | - |
| 1777243075 | 25.56° C | 24% | 1006.8 hPa | 0 mm | - | - | - |
| 1777242775 | 25.56° C | 24% | 1006.8 hPa | 0 mm | - | - | - |
| 1777241875 | 28.33° C | 21% | 1006.9 hPa | 0 mm | - | - | - |
| 1777241575 | 27.22° C | 22% | 1006.8 hPa | 0 mm | - | - | - |
| 1777240375 | 27.22° C | 22% | 1007 hPa | 0 mm | - | - | - |
| 1777240075 | - | - | - | 0 mm | - | - | - |
| 1777238460 | 27.78° C | 22% | 1007.5 hPa | 0 mm | - | - | - |
| 1777238160 | 27.22° C | 23% | 1007.5 hPa | 0 mm | - | - | - |
| 1777237860 | 26.67° C | 23% | 1007.4 hPa | 0 mm | - | - | - |
| 1777235460 | 25° C | 27% | 1007.7 hPa | 0 mm | - | - | - |
| 1777235160 | 25.56° C | 26% | 1007.7 hPa | 0 mm | - | - | - |
| 1777233960 | 26.67° C | 25% | 1007.8 hPa | 0 mm | - | - | - |
| 1777233660 | 26.67° C | 24% | 1007.9 hPa | 0 mm | - | - | - |
| 1777233360 | 25.56° C | 26% | 1007.9 hPa | 0 mm | - | - | - |
| 1777231860 | 26.67° C | 25% | 1008.1 hPa | 0 mm | - | - | - |
| 1777231560 | 26.67° C | 25% | 1008.2 hPa | 0 mm | - | - | - |
| 1777231260 | 25° C | 26% | 1008.3 hPa | 0 mm | - | - | - |
| 1777230960 | 26.11° C | 25% | 1008.5 hPa | 0 mm | - | - | - |
| 1777229160 | 25.56° C | 26% | 1008.5 hPa | 0 mm | - | - | - |
| 1777228560 | 26.11° C | 25% | 1008.6 hPa | 0 mm | - | - | - |
| 1777228260 | 26.11° C | 25% | 1008.6 hPa | 0 mm | - | - | - |
| 1777227360 | 25.56° C | 26% | 1008.6 hPa | 0 mm | - | - | - |
* Rain latest hour (hover to see other rain measurements)
** Current wind speed in m/s (hover to see current wind gust speed)